sensor_id;sensor_type;location;lat;lon;timestamp;pressure;altitude;pressure_sealevel;temperature;humidity
41202;BME280;26936;50.524;8.684;2023-05-25T00:00:10;100107.88;;;8.34;100.00
41202;BME280;26936;50.524;8.684;2023-05-25T00:02:37;100115.44;;;8.41;100.00
41202;BME280;26936;50.524;8.684;2023-05-25T00:05:04;100117.72;;;8.49;100.00
41202;BME280;26936;50.524;8.684;2023-05-25T00:07:29;100117.72;;;8.49;100.00
41202;BME280;26936;50.524;8.684;2023-05-25T00:09:54;100113.69;;;8.50;100.00
41202;BME280;26936;50.524;8.684;2023-05-25T00:12:20;100117.72;;;8.49;100.00
41202;BME280;26936;50.524;8.684;2023-05-25T00:14:45;100120.16;;;8.47;100.00
41202;BME280;26936;50.524;8.684;2023-05-25T00:17:10;100122.97;;;8.47;100.00
41202;BME280;26936;50.524;8.684;2023-05-25T00:19:37;100113.41;;;8.41;100.00
41202;BME280;26936;50.524;8.684;2023-05-25T00:22:09;100109.03;;;8.40;100.00
41202;BME280;26936;50.524;8.684;2023-05-25T00:24:35;100115.81;;;8.43;100.00
41202;BME280;26936;50.524;8.684;2023-05-25T00:27:00;100116.22;;;8.41;100.00
41202;BME280;26936;50.524;8.684;2023-05-25T00:29:27;100114.66;;;8.40;100.00
41202;BME280;26936;50.524;8.684;2023-05-25T00:31:53;100107.38;;;8.43;100.00
41202;BME280;26936;50.524;8.684;2023-05-25T00:34:18;100110.22;;;8.39;100.00
41202;BME280;26936;50.524;8.684;2023-05-25T00:36:44;100118.28;;;8.37;100.00
41202;BME280;26936;50.524;8.684;2023-05-25T00:39:15;100116.75;;;8.33;100.00
41202;BME280;26936;50.524;8.684;2023-05-25T00:41:45;100121.63;;;8.29;100.00
41202;BME280;26936;50.524;8.684;2023-05-25T00:44:11;100117.22;;;8.24;100.00
41202;BME280;26936;50.524;8.684;2023-05-25T00:46:50;100113.66;;;8.20;100.00
41202;BME280;26936;50.524;8.684;2023-05-25T00:49:18;100115.75;;;8.12;100.00
41202;BME280;26936;50.524;8.684;2023-05-25T00:51:44;100111.00;;;8.06;100.00
41202;BME280;26936;50.524;8.684;2023-05-25T00:54:11;100111.50;;;8.01;100.00
41202;BME280;26936;50.524;8.684;2023-05-25T00:56:39;100105.59;;;7.88;100.00
41202;BME280;26936;50.524;8.684;2023-05-25T00:59:05;100108.81;;;7.87;100.00
41202;BME280;26936;50.524;8.684;2023-05-25T01:01:36;100107.75;;;7.74;100.00
41202;BME280;26936;50.524;8.684;2023-05-25T01:04:06;100109.47;;;7.64;100.00
41202;BME280;26936;50.524;8.684;2023-05-25T01:06:35;100111.09;;;7.62;100.00
41202;BME280;26936;50.524;8.684;2023-05-25T01:09:03;100108.78;;;7.53;100.00
41202;BME280;26936;50.524;8.684;2023-05-25T01:11:35;100110.03;;;7.49;100.00
41202;BME280;26936;50.524;8.684;2023-05-25T01:14:01;100104.81;;;7.47;100.00
41202;BME280;26936;50.524;8.684;2023-05-25T01:16:27;100104.03;;;7.47;100.00
41202;BME280;26936;50.524;8.684;2023-05-25T01:18:53;100102.50;;;7.39;100.00
41202;BME280;26936;50.524;8.684;2023-05-25T01:21:21;100101.69;;;7.42;100.00
41202;BME280;26936;50.524;8.684;2023-05-25T01:23:59;100107.34;;;7.35;100.00
41202;BME280;26936;50.524;8.684;2023-05-25T01:26:28;100107.88;;;7.23;100.00
41202;BME280;26936;50.524;8.684;2023-05-25T01:28:57;100109.50;;;7.17;100.00
41202;BME280;26936;50.524;8.684;2023-05-25T01:31:22;100108.72;;;7.16;100.00
41202;BME280;26936;50.524;8.684;2023-05-25T01:33:52;100109.50;;;7.17;100.00
41202;BME280;26936;50.524;8.684;2023-05-25T01:36:18;100109.91;;;7.15;100.00
41202;BME280;26936;50.524;8.684;2023-05-25T01:38:44;100109.50;;;7.17;100.00
41202;BME280;26936;50.524;8.684;2023-05-25T01:41:09;100097.56;;;7.09;100.00
41202;BME280;26936;50.524;8.684;2023-05-25T01:43:35;100112.81;;;7.05;100.00
41202;BME280;26936;50.524;8.684;2023-05-25T01:46:14;100104.81;;;7.03;100.00
41202;BME280;26936;50.524;8.684;2023-05-25T01:48:54;100105.59;;;7.04;100.00
41202;BME280;26936;50.524;8.684;2023-05-25T01:51:31;100098.81;;;7.01;100.00
41202;BME280;26936;50.524;8.684;2023-05-25T01:54:09;100101.25;;;6.96;100.00
41202;BME280;26936;50.524;8.684;2023-05-25T01:56:36;100108.50;;;6.93;100.00
41202;BME280;26936;50.524;8.684;2023-05-25T01:59:02;100107.28;;;6.90;100.00
41202;BME280;26936;50.524;8.684;2023-05-25T02:01:30;100113.31;;;6.89;100.00
41202;BME280;26936;50.524;8.684;2023-05-25T02:03:56;100104.16;;;6.85;100.00
41202;BME280;26936;50.524;8.684;2023-05-25T02:06:22;100109.38;;;6.79;100.00
41202;BME280;26936;50.524;8.684;2023-05-25T02:08:47;100115.38;;;6.81;100.00
41202;BME280;26936;50.524;8.684;2023-05-25T02:11:13;100105.00;;;6.75;100.00
41202;BME280;26936;50.524;8.684;2023-05-25T02:13:40;100111.88;;;6.67;100.00
41202;BME280;26936;50.524;8.684;2023-05-25T02:16:06;100114.66;;;6.70;100.00
41202;BME280;26936;50.524;8.684;2023-05-25T02:18:31;100112.63;;;6.71;100.00
41202;BME280;26936;50.524;8.684;2023-05-25T02:20:58;100109.06;;;6.67;100.00
41202;BME280;26936;50.524;8.684;2023-05-25T02:23:23;100102.22;;;6.71;100.00
41202;BME280;26936;50.524;8.684;2023-05-25T02:25:49;100098.72;;;6.60;100.00
41202;BME280;26936;50.524;8.684;2023-05-25T02:28:16;100094.72;;;6.58;100.00
41202;BME280;26936;50.524;8.684;2023-05-25T02:30:41;100096.72;;;6.57;100.00
41202;BME280;26936;50.524;8.684;2023-05-25T02:33:06;100088.72;;;6.56;100.00
41202;BME280;26936;50.524;8.684;2023-05-25T02:35:31;100089.09;;;6.58;100.00
41202;BME280;26936;50.524;8.684;2023-05-25T02:37:57;100095.16;;;6.49;100.00
41202;BME280;26936;50.524;8.684;2023-05-25T02:40:23;100090.38;;;6.46;100.00
41202;BME280;26936;50.524;8.684;2023-05-25T02:42:48;100096.78;;;6.43;100.00
41202;BME280;26936;50.524;8.684;2023-05-25T02:45:13;100092.75;;;6.48;100.00
41202;BME280;26936;50.524;8.684;2023-05-25T02:47:39;100093.19;;;6.43;100.00
41202;BME280;26936;50.524;8.684;2023-05-25T02:50:05;100098.44;;;6.37;100.00
41202;BME280;26936;50.524;8.684;2023-05-25T02:52:30;100094.44;;;6.35;100.00
41202;BME280;26936;50.524;8.684;2023-05-25T02:54:56;100095.63;;;6.37;100.00
41202;BME280;26936;50.524;8.684;2023-05-25T02:57:22;100102.81;;;6.38;100.00
41202;BME280;26936;50.524;8.684;2023-05-25T02:59:48;100101.63;;;6.36;100.00
41202;BME280;26936;50.524;8.684;2023-05-25T03:02:13;100092.03;;;6.33;100.00
41202;BME280;26936;50.524;8.684;2023-05-25T03:04:39;100105.63;;;6.35;100.00
41202;BME280;26936;50.524;8.684;2023-05-25T03:07:06;100099.66;;;6.33;100.00
41202;BME280;26936;50.524;8.684;2023-05-25T03:09:31;100099.25;;;6.31;100.00
41202;BME280;26936;50.524;8.684;2023-05-25T03:11:56;100109.66;;;6.30;100.00
41202;BME280;26936;50.524;8.684;2023-05-25T03:14:22;100096.88;;;6.33;100.00
41202;BME280;26936;50.524;8.684;2023-05-25T03:16:47;100114.41;;;6.33;100.00
41202;BME280;26936;50.524;8.684;2023-05-25T03:19:12;100121.66;;;6.27;100.00
41202;BME280;26936;50.524;8.684;2023-05-25T03:21:37;100122.06;;;6.26;100.00
41202;BME280;26936;50.524;8.684;2023-05-25T03:24:03;100124.06;;;6.22;100.00
41202;BME280;26936;50.524;8.684;2023-05-25T03:26:28;100126.09;;;6.21;100.00
41202;BME280;26936;50.524;8.684;2023-05-25T03:28:54;100118.88;;;6.20;100.00
41202;BME280;26936;50.524;8.684;2023-05-25T03:31:20;100127.69;;;6.15;100.00
41202;BME280;26936;50.524;8.684;2023-05-25T03:33:45;100128.50;;;6.09;100.00
41202;BME280;26936;50.524;8.684;2023-05-25T03:36:10;100127.72;;;6.12;100.00
41202;BME280;26936;50.524;8.684;2023-05-25T03:38:36;100131.31;;;6.09;100.00
41202;BME280;26936;50.524;8.684;2023-05-25T03:41:02;100139.69;;;6.12;100.00
41202;BME280;26936;50.524;8.684;2023-05-25T03:43:27;100132.50;;;6.11;100.00
41202;BME280;26936;50.524;8.684;2023-05-25T03:45:53;100124.13;;;6.15;100.00
41202;BME280;26936;50.524;8.684;2023-05-25T03:48:18;100126.44;;;6.23;100.00
41202;BME280;26936;50.524;8.684;2023-05-25T03:50:43;100132.44;;;6.29;100.00
41202;BME280;26936;50.524;8.684;2023-05-25T03:53:09;100138.41;;;6.34;100.00
41202;BME280;26936;50.524;8.684;2023-05-25T03:55:34;100136.78;;;6.44;100.00
41202;BME280;26936;50.524;8.684;2023-05-25T03:57:59;100139.13;;;6.52;100.00
41202;BME280;26936;50.524;8.684;2023-05-25T04:00:24;100140.69;;;6.60;100.00
41202;BME280;26936;50.524;8.684;2023-05-25T04:02:50;100147.44;;;6.70;100.00
41202;BME280;26936;50.524;8.684;2023-05-25T04:05:15;100148.97;;;6.78;100.00
41202;BME280;26936;50.524;8.684;2023-05-25T04:07:40;100153.28;;;6.93;100.00
41202;BME280;26936;50.524;8.684;2023-05-25T04:10:06;100160.00;;;7.10;100.00
41202;BME280;26936;50.524;8.684;2023-05-25T04:12:32;100156.28;;;7.23;100.00
41202;BME280;26936;50.524;8.684;2023-05-25T04:14:57;100154.16;;;7.38;100.00
41202;BME280;26936;50.524;8.684;2023-05-25T04:17:23;100158.41;;;7.56;100.00
41202;BME280;26936;50.524;8.684;2023-05-25T04:19:50;100161.47;;;7.72;100.00
41202;BME280;26936;50.524;8.684;2023-05-25T04:22:16;100164.91;;;7.87;100.00
41202;BME280;26936;50.524;8.684;2023-05-25T04:24:41;100156.69;;;8.06;100.00
41202;BME280;26936;50.524;8.684;2023-05-25T04:27:06;100154.09;;;8.22;100.00
41202;BME280;26936;50.524;8.684;2023-05-25T04:29:31;100160.34;;;8.41;100.00
41202;BME280;26936;50.524;8.684;2023-05-25T04:31:57;100164.09;;;8.61;100.00
41202;BME280;26936;50.524;8.684;2023-05-25T04:34:22;100165.47;;;8.79;100.00
41202;BME280;26936;50.524;8.684;2023-05-25T04:36:48;100166.06;;;8.94;100.00
41202;BME280;26936;50.524;8.684;2023-05-25T04:39:13;100170.72;;;9.04;100.00
41202;BME280;26936;50.524;8.684;2023-05-25T04:41:40;100173.03;;;9.09;100.00
41202;BME280;26936;50.524;8.684;2023-05-25T04:44:07;100180.47;;;9.22;100.00
41202;BME280;26936;50.524;8.684;2023-05-25T04:46:32;100182.28;;;9.36;100.00
41202;BME280;26936;50.524;8.684;2023-05-25T04:49:01;100188.03;;;9.52;100.00
41202;BME280;26936;50.524;8.684;2023-05-25T04:51:26;100181.84;;;9.64;100.00
41202;BME280;26936;50.524;8.684;2023-05-25T04:53:51;100184.06;;;9.73;100.00
41202;BME280;26936;50.524;8.684;2023-05-25T04:56:17;100184.06;;;9.73;100.00
41202;BME280;26936;50.524;8.684;2023-05-25T04:58:42;100190.69;;;9.86;100.00
41202;BME280;26936;50.524;8.684;2023-05-25T05:01:07;100203.72;;;9.99;100.00
41202;BME280;26936;50.524;8.684;2023-05-25T05:03:33;100207.91;;;10.14;100.00
41202;BME280;26936;50.524;8.684;2023-05-25T05:05:58;100204.81;;;10.28;100.00
41202;BME280;26936;50.524;8.684;2023-05-25T05:08:23;100216.75;;;10.55;100.00
41202;BME280;26936;50.524;8.684;2023-05-25T05:10:49;100211.31;;;10.84;100.00
41202;BME280;26936;50.524;8.684;2023-05-25T05:13:14;100216.25;;;11.00;100.00
41202;BME280;26936;50.524;8.684;2023-05-25T05:15:39;100209.94;;;11.28;100.00
41202;BME280;26936;50.524;8.684;2023-05-25T05:18:05;100214.66;;;11.50;98.58
41202;BME280;26936;50.524;8.684;2023-05-25T05:20:32;100213.03;;;11.85;97.03
41202;BME280;26936;50.524;8.684;2023-05-25T05:22:57;100219.19;;;11.96;94.29
41202;BME280;26936;50.524;8.684;2023-05-25T05:25:23;100221.13;;;12.15;94.86
41202;BME280;26936;50.524;8.684;2023-05-25T05:27:48;100226.78;;;12.44;93.22
41202;BME280;26936;50.524;8.684;2023-05-25T05:30:13;100216.06;;;12.67;90.87
41202;BME280;26936;50.524;8.684;2023-05-25T05:32:38;100220.03;;;13.11;89.07
41202;BME280;26936;50.524;8.684;2023-05-25T05:35:04;100217.81;;;13.31;88.06
41202;BME280;26936;50.524;8.684;2023-05-25T05:37:29;100229.59;;;13.67;85.88
41202;BME280;26936;50.524;8.684;2023-05-25T05:39:55;100224.00;;;14.01;85.01
41202;BME280;26936;50.524;8.684;2023-05-25T05:42:20;100231.16;;;14.40;82.62
41202;BME280;26936;50.524;8.684;2023-05-25T05:44:45;100233.13;;;14.86;80.70
41202;BME280;26936;50.524;8.684;2023-05-25T05:47:10;100233.59;;;14.84;79.86
41202;BME280;26936;50.524;8.684;2023-05-25T05:49:36;100240.53;;;15.36;77.13
41202;BME280;26936;50.524;8.684;2023-05-25T05:52:03;100234.38;;;15.37;77.54
41202;BME280;26936;50.524;8.684;2023-05-25T05:54:28;100236.47;;;15.37;77.06
41202;BME280;26936;50.524;8.684;2023-05-25T05:56:54;100229.28;;;15.93;75.30
41202;BME280;26936;50.524;8.684;2023-05-25T05:59:20;100238.91;;;16.63;73.27
41202;BME280;26936;50.524;8.684;2023-05-25T06:01:46;100237.34;;;16.80;72.19
41202;BME280;26936;50.524;8.684;2023-05-25T06:04:11;100235.56;;;17.00;69.92
41202;BME280;26936;50.524;8.684;2023-05-25T06:06:37;100229.47;;;17.34;69.78
41202;BME280;26936;50.524;8.684;2023-05-25T06:09:04;100246.78;;;17.13;69.66
41202;BME280;26936;50.524;8.684;2023-05-25T06:11:32;100239.00;;;17.82;68.84
41202;BME280;26936;50.524;8.684;2023-05-25T06:13:59;100236.56;;;18.22;66.68
41202;BME280;26936;50.524;8.684;2023-05-25T06:16:24;100240.75;;;18.12;65.38
41202;BME280;26936;50.524;8.684;2023-05-25T06:18:50;100245.88;;;18.55;64.43
41202;BME280;26936;50.524;8.684;2023-05-25T06:21:15;100236.03;;;18.33;64.74
41202;BME280;26936;50.524;8.684;2023-05-25T06:23:40;100232.94;;;18.69;63.83
41202;BME280;26936;50.524;8.684;2023-05-25T06:26:06;100237.75;;;18.07;66.19
41202;BME280;26936;50.524;8.684;2023-05-25T06:28:31;100246.59;;;17.25;69.34
41202;BME280;26936;50.524;8.684;2023-05-25T06:30:57;100239.44;;;17.48;68.42
41202;BME280;26936;50.524;8.684;2023-05-25T06:33:22;100242.28;;;18.22;67.46
41202;BME280;26936;50.524;8.684;2023-05-25T06:35:48;100246.03;;;18.52;65.98
41202;BME280;26936;50.524;8.684;2023-05-25T06:38:13;100247.34;;;18.18;65.85
41202;BME280;26936;50.524;8.684;2023-05-25T06:40:39;100248.94;;;18.19;63.91
41202;BME280;26936;50.524;8.684;2023-05-25T06:43:04;100246.38;;;18.21;64.01
41202;BME280;26936;50.524;8.684;2023-05-25T06:45:29;100241.00;;;17.58;66.64
41202;BME280;26936;50.524;8.684;2023-05-25T06:47:54;100246.56;;;17.43;67.85
41202;BME280;26936;50.524;8.684;2023-05-25T06:50:20;100254.44;;;17.57;68.61
41202;BME280;26936;50.524;8.684;2023-05-25T06:52:45;100251.75;;;17.63;67.19
41202;BME280;26936;50.524;8.684;2023-05-25T06:55:11;100259.59;;;16.63;70.79
41202;BME280;26936;50.524;8.684;2023-05-25T06:57:36;100258.28;;;16.37;71.12
41202;BME280;26936;50.524;8.684;2023-05-25T07:00:02;100262.31;;;16.09;72.21
41202;BME280;26936;50.524;8.684;2023-05-25T07:02:31;100267.53;;;16.86;72.06
41202;BME280;26936;50.524;8.684;2023-05-25T07:04:56;100257.16;;;17.94;66.10
41202;BME280;26936;50.524;8.684;2023-05-25T07:07:22;100261.13;;;18.20;65.65
41202;BME280;26936;50.524;8.684;2023-05-25T07:09:47;100250.06;;;18.45;64.36
41202;BME280;26936;50.524;8.684;2023-05-25T07:12:12;100241.00;;;18.70;60.36
41202;BME280;26936;50.524;8.684;2023-05-25T07:14:38;100240.38;;;18.66;60.69
41202;BME280;26936;50.524;8.684;2023-05-25T07:17:04;100243.28;;;18.43;61.40
41202;BME280;26936;50.524;8.684;2023-05-25T07:19:29;100244.03;;;18.20;62.03
41202;BME280;26936;50.524;8.684;2023-05-25T07:21:54;100247.03;;;18.49;61.20
41202;BME280;26936;50.524;8.684;2023-05-25T07:24:20;100244.13;;;18.58;61.23
41202;BME280;26936;50.524;8.684;2023-05-25T07:26:45;100247.47;;;18.00;62.53
41202;BME280;26936;50.524;8.684;2023-05-25T07:29:11;100242.53;;;18.57;61.07
41202;BME280;26936;50.524;8.684;2023-05-25T07:31:37;100247.63;;;18.91;59.08
41202;BME280;26936;50.524;8.684;2023-05-25T07:34:02;100239.06;;;19.29;58.57
41202;BME280;26936;50.524;8.684;2023-05-25T07:36:27;100245.25;;;18.89;59.25
41202;BME280;26936;50.524;8.684;2023-05-25T07:38:53;100258.41;;;19.11;60.27
41202;BME280;26936;50.524;8.684;2023-05-25T07:41:18;100253.63;;;19.46;59.08
41202;BME280;26936;50.524;8.684;2023-05-25T07:43:43;100255.13;;;19.56;58.05
41202;BME280;26936;50.524;8.684;2023-05-25T07:46:08;100255.81;;;19.36;57.90
41202;BME280;26936;50.524;8.684;2023-05-25T07:48:34;100253.78;;;19.86;56.28
41202;BME280;26936;50.524;8.684;2023-05-25T07:50:59;100262.41;;;20.06;57.03
41202;BME280;26936;50.524;8.684;2023-05-25T07:53:24;100258.16;;;20.51;54.90
41202;BME280;26936;50.524;8.684;2023-05-25T07:55:50;100255.69;;;20.23;56.08
41202;BME280;26936;50.524;8.684;2023-05-25T07:58:15;100259.44;;;19.66;57.00
41202;BME280;26936;50.524;8.684;2023-05-25T08:00:40;100261.09;;;19.58;56.75
41202;BME280;26936;50.524;8.684;2023-05-25T08:03:06;100258.06;;;19.47;58.63
41202;BME280;26936;50.524;8.684;2023-05-25T08:05:31;100255.44;;;19.92;57.00
41202;BME280;26936;50.524;8.684;2023-05-25T08:07:56;100255.44;;;20.62;53.82
41202;BME280;26936;50.524;8.684;2023-05-25T08:10:22;100256.63;;;21.15;53.42
41202;BME280;26936;50.524;8.684;2023-05-25T08:12:48;100251.00;;;21.01;51.99
41202;BME280;26936;50.524;8.684;2023-05-25T08:15:13;100242.25;;;20.70;52.91
41202;BME280;26936;50.524;8.684;2023-05-25T08:17:38;100243.19;;;20.21;53.70
41202;BME280;26936;50.524;8.684;2023-05-25T08:20:06;100236.03;;;20.91;54.18
41202;BME280;26936;50.524;8.684;2023-05-25T08:22:32;100242.91;;;20.59;53.50
41202;BME280;26936;50.524;8.684;2023-05-25T08:24:58;100239.63;;;20.66;53.83
41202;BME280;26936;50.524;8.684;2023-05-25T08:27:23;100237.50;;;20.87;53.92
41202;BME280;26936;50.524;8.684;2023-05-25T08:29:48;100244.50;;;19.91;55.49
41202;BME280;26936;50.524;8.684;2023-05-25T08:32:13;100241.28;;;20.33;54.78
41202;BME280;26936;50.524;8.684;2023-05-25T08:34:39;100247.53;;;20.37;55.72
41202;BME280;26936;50.524;8.684;2023-05-25T08:37:04;100247.19;;;20.89;52.92
41202;BME280;26936;50.524;8.684;2023-05-25T08:39:30;100243.44;;;21.23;52.24
41202;BME280;26936;50.524;8.684;2023-05-25T08:41:55;100240.91;;;21.62;50.84
41202;BME280;26936;50.524;8.684;2023-05-25T08:44:21;100243.47;;;22.17;51.70
41202;BME280;26936;50.524;8.684;2023-05-25T08:46:46;100247.34;;;22.14;48.91
41202;BME280;26936;50.524;8.684;2023-05-25T08:49:14;100239.31;;;22.65;48.92
41202;BME280;26936;50.524;8.684;2023-05-25T08:51:50;100230.84;;;23.10;48.35
41202;BME280;26936;50.524;8.684;2023-05-25T08:54:18;100231.34;;;23.03;46.46
41202;BME280;26936;50.524;8.684;2023-05-25T08:56:51;100243.69;;;22.55;46.63
41202;BME280;26936;50.524;8.684;2023-05-25T09:01:54;100239.56;;;22.20;48.97
41202;BME280;26936;50.524;8.684;2023-05-25T09:04:21;100236.97;;;22.69;48.97
41202;BME280;26936;50.524;8.684;2023-05-25T09:06:47;100238.22;;;22.15;48.20
41202;BME280;26936;50.524;8.684;2023-05-25T09:09:12;100236.41;;;22.60;50.35
41202;BME280;26936;50.524;8.684;2023-05-25T09:11:42;100236.66;;;23.26;46.64
41202;BME280;26936;50.524;8.684;2023-05-25T09:14:08;100240.22;;;22.94;47.25
41202;BME280;26936;50.524;8.684;2023-05-25T09:16:36;100254.81;;;22.90;46.71
41202;BME280;26936;50.524;8.684;2023-05-25T09:19:01;100249.22;;;23.40;46.99
41202;BME280;26936;50.524;8.684;2023-05-25T09:21:26;100243.50;;;22.70;45.08
41202;BME280;26936;50.524;8.684;2023-05-25T09:23:52;100235.13;;;23.47;46.45
41202;BME280;26936;50.524;8.684;2023-05-25T09:26:17;100245.84;;;23.74;44.52
41202;BME280;26936;50.524;8.684;2023-05-25T09:28:46;100244.00;;;23.55;43.82
41202;BME280;26936;50.524;8.684;2023-05-25T09:31:13;100249.50;;;23.86;45.46
41202;BME280;26936;50.524;8.684;2023-05-25T09:33:39;100251.59;;;23.63;43.04
41202;BME280;26936;50.524;8.684;2023-05-25T09:36:05;100242.44;;;23.43;44.01
41202;BME280;26936;50.524;8.684;2023-05-25T09:38:31;100245.78;;;23.25;42.93
41202;BME280;26936;50.524;8.684;2023-05-25T09:40:57;100245.22;;;22.51;43.34
41202;BME280;26936;50.524;8.684;2023-05-25T09:43:22;100252.28;;;21.51;45.34
41202;BME280;26936;50.524;8.684;2023-05-25T09:45:48;100255.63;;;21.75;46.59
41202;BME280;26936;50.524;8.684;2023-05-25T09:48:13;100243.38;;;22.48;46.66
41202;BME280;26936;50.524;8.684;2023-05-25T09:50:38;100236.22;;;22.80;45.98
41202;BME280;26936;50.524;8.684;2023-05-25T09:53:06;100238.50;;;23.40;42.41
41202;BME280;26936;50.524;8.684;2023-05-25T09:55:31;100238.00;;;23.47;42.87
41202;BME280;26936;50.524;8.684;2023-05-25T09:57:56;100232.25;;;23.91;43.15
41202;BME280;26936;50.524;8.684;2023-05-25T10:00:22;100240.84;;;23.53;43.37
41202;BME280;26936;50.524;8.684;2023-05-25T10:02:48;100237.22;;;23.52;44.39
41202;BME280;26936;50.524;8.684;2023-05-25T10:05:14;100244.00;;;23.93;43.58
41202;BME280;26936;50.524;8.684;2023-05-25T10:07:40;100236.31;;;24.46;42.27
41202;BME280;26936;50.524;8.684;2023-05-25T10:10:06;100247.38;;;23.37;43.05
41202;BME280;26936;50.524;8.684;2023-05-25T10:12:32;100239.34;;;22.76;44.22
41202;BME280;26936;50.524;8.684;2023-05-25T10:15:01;100250.41;;;23.00;44.54
41202;BME280;26936;50.524;8.684;2023-05-25T10:17:29;100250.91;;;22.45;43.47
41202;BME280;26936;50.524;8.684;2023-05-25T10:19:59;100252.66;;;22.79;45.41
41202;BME280;26936;50.524;8.684;2023-05-25T10:22:31;100249.50;;;23.69;44.28
41202;BME280;26936;50.524;8.684;2023-05-25T10:25:40;100254.75;;;23.82;43.06
41202;BME280;26936;50.524;8.684;2023-05-25T10:28:01;100248.72;;;23.58;43.00
41202;BME280;26936;50.524;8.684;2023-05-25T10:30:27;100245.75;;;23.19;45.53
41202;BME280;26936;50.524;8.684;2023-05-25T10:32:55;100238.66;;;22.98;44.65
41202;BME280;26936;50.524;8.684;2023-05-25T10:35:22;100242.34;;;23.10;44.34
41202;BME280;26936;50.524;8.684;2023-05-25T10:37:50;100234.00;;;23.23;43.84
41202;BME280;26936;50.524;8.684;2023-05-25T10:40:16;100234.22;;;23.14;43.37
41202;BME280;26936;50.524;8.684;2023-05-25T10:42:41;100245.31;;;23.81;44.47
41202;BME280;26936;50.524;8.684;2023-05-25T10:45:09;100239.56;;;23.70;42.62
41202;BME280;26936;50.524;8.684;2023-05-25T10:47:36;100237.19;;;23.41;41.90
41202;BME280;26936;50.524;8.684;2023-05-25T10:50:03;100235.38;;;23.33;42.94
41202;BME280;26936;50.524;8.684;2023-05-25T10:52:29;100231.09;;;23.06;45.41
41202;BME280;26936;50.524;8.684;2023-05-25T10:54:56;100222.19;;;22.93;45.32
41202;BME280;26936;50.524;8.684;2023-05-25T10:57:22;100223.41;;;22.64;46.11
41202;BME280;26936;50.524;8.684;2023-05-25T10:59:51;100218.06;;;22.46;44.92
41202;BME280;26936;50.524;8.684;2023-05-25T11:02:19;100222.56;;;22.58;46.51
41202;BME280;26936;50.524;8.684;2023-05-25T11:04:48;100222.50;;;22.05;46.42
41202;BME280;26936;50.524;8.684;2023-05-25T11:07:15;100217.47;;;21.95;46.99
41202;BME280;26936;50.524;8.684;2023-05-25T11:09:43;100221.81;;;22.21;47.91
41202;BME280;26936;50.524;8.684;2023-05-25T11:12:20;100221.25;;;22.12;46.28
41202;BME280;26936;50.524;8.684;2023-05-25T11:15:10;100215.72;;;22.45;46.66
41202;BME280;26936;50.524;8.684;2023-05-25T11:18:02;100224.41;;;22.56;47.33
41202;BME280;26936;50.524;8.684;2023-05-25T11:20:28;100220.47;;;22.11;47.40
41202;BME280;26936;50.524;8.684;2023-05-25T11:22:55;100216.88;;;21.54;48.15
41202;BME280;26936;50.524;8.684;2023-05-25T11:25:41;100216.69;;;21.63;49.62
41202;BME280;26936;50.524;8.684;2023-05-25T11:28:07;100213.50;;;21.55;49.48
41202;BME280;26936;50.524;8.684;2023-05-25T11:30:35;100216.66;;;21.06;47.71
41202;BME280;26936;50.524;8.684;2023-05-25T11:33:02;100213.69;;;21.46;49.67
41202;BME280;26936;50.524;8.684;2023-05-25T11:35:27;100217.97;;;21.62;48.40
41202;BME280;26936;50.524;8.684;2023-05-25T11:37:53;100207.31;;;21.63;48.61
41202;BME280;26936;50.524;8.684;2023-05-25T11:40:21;100213.41;;;21.44;48.77
41202;BME280;26936;50.524;8.684;2023-05-25T11:42:48;100199.28;;;21.35;51.83
41202;BME280;26936;50.524;8.684;2023-05-25T11:45:15;100199.66;;;21.48;51.63
41202;BME280;26936;50.524;8.684;2023-05-25T11:47:40;100202.88;;;21.30;50.35
41202;BME280;26936;50.524;8.684;2023-05-25T11:50:06;100197.50;;;20.92;50.89
41202;BME280;26936;50.524;8.684;2023-05-25T11:52:31;100196.38;;;21.04;52.91
41202;BME280;26936;50.524;8.684;2023-05-25T11:54:57;100186.19;;;21.03;51.29
41202;BME280;26936;50.524;8.684;2023-05-25T11:57:23;100192.50;;;20.87;52.59
41202;BME280;26936;50.524;8.684;2023-05-25T11:59:53;100188.09;;;20.92;51.85
41202;BME280;26936;50.524;8.684;2023-05-25T12:02:20;100190.94;;;20.86;51.36
41202;BME280;26936;50.524;8.684;2023-05-25T12:04:57;100194.22;;;20.99;51.33
41202;BME280;26936;50.524;8.684;2023-05-25T12:07:24;100194.78;;;21.03;51.24
41202;BME280;26936;50.524;8.684;2023-05-25T12:09:50;100195.03;;;20.80;50.06
41202;BME280;26936;50.524;8.684;2023-05-25T12:12:15;100188.69;;;20.50;48.82
41202;BME280;26936;50.524;8.684;2023-05-25T12:14:50;100191.09;;;20.17;49.23
41202;BME280;26936;50.524;8.684;2023-05-25T12:17:17;100190.69;;;20.24;51.22
41202;BME280;26936;50.524;8.684;2023-05-25T12:19:43;100183.59;;;20.40;50.77
41202;BME280;26936;50.524;8.684;2023-05-25T12:22:09;100185.72;;;20.65;53.09
41202;BME280;26936;50.524;8.684;2023-05-25T12:24:35;100185.56;;;20.74;52.29
41202;BME280;26936;50.524;8.684;2023-05-25T12:27:01;100181.97;;;20.99;51.66
41202;BME280;26936;50.524;8.684;2023-05-25T12:29:28;100172.22;;;20.65;51.29
41202;BME280;26936;50.524;8.684;2023-05-25T12:32:03;100173.13;;;20.77;52.85
41202;BME280;26936;50.524;8.684;2023-05-25T12:34:29;100173.53;;;20.90;51.20
41202;BME280;26936;50.524;8.684;2023-05-25T12:36:55;100167.72;;;21.04;51.79
41202;BME280;26936;50.524;8.684;2023-05-25T12:39:33;100179.19;;;21.04;52.07
41202;BME280;26936;50.524;8.684;2023-05-25T12:42:00;100177.03;;;21.25;52.39
41202;BME280;26936;50.524;8.684;2023-05-25T12:44:30;100183.19;;;21.18;50.47
41202;BME280;26936;50.524;8.684;2023-05-25T12:47:08;100173.66;;;21.01;49.77
41202;BME280;26936;50.524;8.684;2023-05-25T12:49:34;100174.81;;;20.89;48.60